createdAt,value
2017-11-21T00:01:31.915Z,15.60
2017-11-21T00:04:00.744Z,15.90
2017-11-21T00:06:29.599Z,16.40
2017-11-21T00:08:59.227Z,17.57
2017-11-21T00:11:28.819Z,18.80
2017-11-21T00:13:58.451Z,19.03
2017-11-21T00:16:27.294Z,19.67
2017-11-21T00:18:56.201Z,22.40
2017-11-21T00:21:26.754Z,22.70
2017-11-21T00:23:55.633Z,24.00
2017-11-21T00:26:25.456Z,26.30
2017-11-21T00:28:54.323Z,27.37
2017-11-21T00:31:23.962Z,31.13
2017-11-21T00:33:52.810Z,30.00
2017-11-21T00:36:21.739Z,31.87
2017-11-21T00:38:50.577Z,34.40
2017-11-21T00:41:20.205Z,33.87
2017-11-21T00:43:49.823Z,33.33
2017-11-21T00:46:19.463Z,34.07
2017-11-21T00:48:48.319Z,32.70
2017-11-21T00:51:17.313Z,30.90
2017-11-21T00:53:46.936Z,27.53
2017-11-21T00:56:15.797Z,27.00
2017-11-21T00:58:45.435Z,27.63
2017-11-21T01:01:14.583Z,25.70
2017-11-21T01:03:43.460Z,24.67
2017-11-21T01:06:12.532Z,23.67
2017-11-21T01:08:41.388Z,22.60
2017-11-21T01:11:10.248Z,22.57
2017-11-21T01:13:39.130Z,22.77
2017-11-21T01:16:07.986Z,23.37
2017-11-21T01:18:37.156Z,21.50
2017-11-21T01:21:06.015Z,22.70
2017-11-21T01:23:35.843Z,23.53
2017-11-21T01:26:05.031Z,24.07
2017-11-21T01:28:34.655Z,24.03
2017-11-21T01:31:04.328Z,22.27
2017-11-21T01:33:33.274Z,20.87
2017-11-21T01:36:02.123Z,20.37
2017-11-21T01:38:30.978Z,21.10
2017-11-21T01:40:59.817Z,19.20
2017-11-21T01:43:29.424Z,19.00
2017-11-21T01:45:59.103Z,20.50
2017-11-21T01:48:28.004Z,20.63
2017-11-21T01:50:56.852Z,22.40
2017-11-21T01:53:25.702Z,23.30
2017-11-21T01:55:55.314Z,21.37
2017-11-21T01:58:24.955Z,22.90
2017-11-21T02:00:53.804Z,24.07
2017-11-21T02:03:23.437Z,23.37
2017-11-21T02:05:52.297Z,23.10
2017-11-21T02:08:21.919Z,24.43
2017-11-21T02:10:51.524Z,26.80
2017-11-21T02:13:20.413Z,26.43
2017-11-21T02:15:49.264Z,28.93
2017-11-21T02:18:18.112Z,32.03
2017-11-21T02:20:47.749Z,32.90
2017-11-21T02:23:16.920Z,34.23
2017-11-21T02:25:46.569Z,37.63
2017-11-21T02:28:15.433Z,39.10
2017-11-21T02:30:45.040Z,41.40
2017-11-21T02:33:14.643Z,41.43
2017-11-21T02:35:44.281Z,42.90
2017-11-21T02:38:13.144Z,38.57
2017-11-21T02:40:43.493Z,40.93
2017-11-21T02:43:12.488Z,41.80
2017-11-21T02:45:41.324Z,37.63
2017-11-21T02:48:10.179Z,39.53
2017-11-21T02:50:39.034Z,38.40
2017-11-21T02:53:08.212Z,40.37
2017-11-21T02:55:37.837Z,42.27
2017-11-21T02:58:07.461Z,45.50
2017-11-21T03:00:36.312Z,45.57
2017-11-21T03:03:05.929Z,46.57
2017-11-21T03:05:35.584Z,45.83
2017-11-21T03:08:04.406Z,44.47
2017-11-21T03:10:33.252Z,46.17
2017-11-21T03:13:02.132Z,45.43
2017-11-21T03:15:31.763Z,45.17
2017-11-21T03:18:00.614Z,47.70
2017-11-21T03:20:42.139Z,43.80
2017-11-21T03:23:23.066Z,42.40
2017-11-21T03:26:04.490Z,43.83
2017-11-21T03:28:38.765Z,39.10
2017-11-21T03:31:07.615Z,39.67
2017-11-21T03:33:36.463Z,37.53
2017-11-21T03:36:06.063Z,37.30
2017-11-21T03:38:35.709Z,40.27
2017-11-21T03:41:04.556Z,34.90
2017-11-21T03:43:34.169Z,35.97
2017-11-21T03:46:03.775Z,33.67
2017-11-21T03:48:33.408Z,32.67
2017-11-21T03:51:02.259Z,32.27
2017-11-21T03:53:31.093Z,32.57
2017-11-21T03:55:59.965Z,31.77
2017-11-21T03:58:29.327Z,30.63
2017-11-21T04:00:58.169Z,30.03
2017-11-21T04:03:27.043Z,29.83
2017-11-21T04:05:55.875Z,31.73
2017-11-21T04:08:24.726Z,31.50
2017-11-21T04:10:53.580Z,28.53
2017-11-21T04:13:22.434Z,28.17
2017-11-21T04:15:51.312Z,27.33
2017-11-21T04:18:20.131Z,29.27
2017-11-21T04:20:49.748Z,29.47
2017-11-21T04:23:19.347Z,31.77
2017-11-21T04:25:48.977Z,31.50
2017-11-21T04:28:17.875Z,33.63
2017-11-21T04:30:46.727Z,36.17
2017-11-21T04:33:17.153Z,38.20
2017-11-21T04:35:46.768Z,39.23
2017-11-21T04:38:16.378Z,38.60
2017-11-21T04:40:46.013Z,41.37
2017-11-21T04:43:14.879Z,42.07
2017-11-21T04:45:44.532Z,43.80
2017-11-21T04:48:13.377Z,43.27
2017-11-21T04:50:43.310Z,43.80
2017-11-21T04:53:12.152Z,46.87
2017-11-21T04:55:41.007Z,47.10
2017-11-21T04:58:10.076Z,45.30
2017-11-21T05:00:39.048Z,50.53
2017-11-21T05:03:07.921Z,50.00
2017-11-21T05:05:36.764Z,48.47
2017-11-21T05:08:05.609Z,54.17
2017-11-21T05:10:35.242Z,51.13
2017-11-21T05:13:04.089Z,53.20
2017-11-21T05:15:32.933Z,52.40
2017-11-21T05:18:01.808Z,53.00
2017-11-21T05:20:30.648Z,52.43
2017-11-21T05:23:00.276Z,52.27
2017-11-21T05:25:29.888Z,51.03
2017-11-21T05:27:59.510Z,50.60
2017-11-21T05:30:28.369Z,48.47
2017-11-21T05:33:09.890Z,47.63
2017-11-21T05:35:38.771Z,44.17
2017-11-21T05:38:07.614Z,45.30
2017-11-21T05:40:36.464Z,43.47
2017-11-21T05:43:05.319Z,37.97
2017-11-21T05:45:34.919Z,39.93
2017-11-21T05:48:04.537Z,35.20
2017-11-21T05:50:34.153Z,36.20
2017-11-21T05:53:03.017Z,31.90
2017-11-21T05:55:32.631Z,29.30
2017-11-21T05:58:01.910Z,24.63
2017-11-21T06:00:30.764Z,26.57
2017-11-21T06:02:59.620Z,22.67
2017-11-21T06:05:29.226Z,18.20
2017-11-21T06:07:59.368Z,20.77
2017-11-21T06:10:28.207Z,18.77
2017-11-21T06:12:57.051Z,18.63
2017-11-21T06:15:26.078Z,17.43
2017-11-21T06:17:54.932Z,17.50
2017-11-21T06:20:24.544Z,17.13
2017-11-21T06:22:53.503Z,16.83
2017-11-21T06:25:22.327Z,17.23
2017-11-21T06:27:51.949Z,19.40
2017-11-21T06:30:20.821Z,20.37
2017-11-21T06:32:50.447Z,19.60
2017-11-21T06:35:19.288Z,22.90
2017-11-21T06:37:48.147Z,21.63
2017-11-21T06:40:16.992Z,22.43
2017-11-21T06:42:46.633Z,23.40
2017-11-21T06:45:15.463Z,25.77
2017-11-21T06:47:44.316Z,24.63
2017-11-21T06:50:13.238Z,24.10
2017-11-21T06:52:42.064Z,26.13
2017-11-21T06:55:11.355Z,25.37
2017-11-21T06:57:40.966Z,26.17
2017-11-21T07:00:10.600Z,27.67
2017-11-21T07:02:39.469Z,27.23
2017-11-21T07:05:09.085Z,26.40
2017-11-21T07:07:37.935Z,27.03
2017-11-21T07:10:06.782Z,28.60
2017-11-21T07:12:36.095Z,31.07
2017-11-21T07:15:04.970Z,31.93
2017-11-21T07:17:34.803Z,36.03
2017-11-21T07:20:04.436Z,39.27
2017-11-21T07:22:33.273Z,43.40
2017-11-21T07:25:03.644Z,40.07
2017-11-21T07:27:32.488Z,42.40
2017-11-21T07:30:01.362Z,44.47
2017-11-21T07:32:30.197Z,43.10
2017-11-21T07:34:59.829Z,43.87
2017-11-21T07:37:28.817Z,44.13
2017-11-21T07:39:57.664Z,41.60
2017-11-21T07:42:26.509Z,39.00
2017-11-21T07:44:55.362Z,39.17
2017-11-21T07:47:25.008Z,42.47
2017-11-21T07:49:53.884Z,37.40
2017-11-21T07:52:23.567Z,36.87
2017-11-21T07:54:53.184Z,38.10
2017-11-21T07:57:22.477Z,35.50
2017-11-21T07:59:52.652Z,37.63
2017-11-21T08:02:21.516Z,34.77
2017-11-21T08:04:51.040Z,36.40
2017-11-21T08:07:19.908Z,35.40
2017-11-21T08:09:48.776Z,39.58
2017-11-21T08:12:18.397Z,35.20
2017-11-21T08:14:47.242Z,37.13
2017-11-21T08:17:16.092Z,30.73
2017-11-21T08:19:44.933Z,34.40
2017-11-21T08:22:14.102Z,36.65
2017-11-21T08:24:44.044Z,31.00
2017-11-21T08:27:12.883Z,30.87
2017-11-21T08:29:41.748Z,31.07
2017-11-21T08:32:10.604Z,29.30
2017-11-21T08:34:39.478Z,29.90
2017-11-21T08:37:09.091Z,30.77
2017-11-21T08:39:38.756Z,30.00
2017-11-21T08:42:08.452Z,29.50
2017-11-21T08:44:37.300Z,27.83
2017-11-21T08:47:06.927Z,29.10
2017-11-21T08:49:35.760Z,26.57
2017-11-21T08:52:04.595Z,28.77
2017-11-21T08:54:33.684Z,27.40
2017-11-21T08:57:02.512Z,29.60
2017-11-21T08:59:31.374Z,26.50
2017-11-21T09:02:00.225Z,27.40
2017-11-21T09:04:30.160Z,26.93
2017-11-21T09:06:59.787Z,24.47
2017-11-21T09:09:28.646Z,24.30
2017-11-21T09:11:58.286Z,22.60
2017-11-21T09:14:27.129Z,26.13
2017-11-21T09:16:55.971Z,24.30
2017-11-21T09:19:24.870Z,20.57
2017-11-21T09:21:53.697Z,18.97
2017-11-21T09:24:22.536Z,18.17
2017-11-21T09:26:51.400Z,126.57
2017-11-21T09:29:20.244Z,21.90
2017-11-21T09:31:49.113Z,20.17
2017-11-21T09:34:17.952Z,20.17
2017-11-21T09:36:47.584Z,19.40
2017-11-21T09:39:17.227Z,17.40
2017-11-21T09:41:46.061Z,15.00
2017-11-21T09:44:15.684Z,14.93
2017-11-21T09:46:45.327Z,13.23
2017-11-21T09:49:14.251Z,12.33
2017-11-21T09:51:43.095Z,11.00
2017-11-21T09:54:11.988Z,9.77
2017-11-21T09:56:40.828Z,7.73
2017-11-21T09:59:10.443Z,6.60
2017-11-21T10:01:40.048Z,6.83
2017-11-21T10:04:08.902Z,5.43
2017-11-21T10:06:37.778Z,4.40
2017-11-21T10:09:06.601Z,4.80
2017-11-21T10:11:35.440Z,6.80
2017-11-21T10:14:04.283Z,7.60
2017-11-21T10:16:33.373Z,5.07
2017-11-21T10:19:02.208Z,3.83
2017-11-21T10:21:31.063Z,3.90
2017-11-21T10:23:59.945Z,4.60
2017-11-21T10:26:28.776Z,4.90
2017-11-21T10:28:57.745Z,4.23
2017-11-21T10:31:26.596Z,3.97
2017-11-21T10:33:56.223Z,3.77
2017-11-21T10:36:25.084Z,3.50
2017-11-21T10:38:54.675Z,3.10
2017-11-21T10:41:23.508Z,2.93
2017-11-21T10:43:52.352Z,2.70
2017-11-21T10:46:22.057Z,2.70
2017-11-21T10:48:50.899Z,2.60
2017-11-21T10:51:19.754Z,3.17
2017-11-21T10:53:49.369Z,2.60
2017-11-21T10:56:19.000Z,10.32
2017-11-21T10:58:47.839Z,4.30
2017-11-21T11:01:16.676Z,3.83
2017-11-21T11:03:45.522Z,2.43
2017-11-21T11:06:14.376Z,3.50
2017-11-21T11:08:43.214Z,2.63
2017-11-21T11:11:12.083Z,3.47
2017-11-21T11:13:40.926Z,2.90
2017-11-21T11:16:10.523Z,3.50
2017-11-21T11:18:39.373Z,3.33
2017-11-21T11:21:08.196Z,3.80
2017-11-21T11:23:37.073Z,3.67
2017-11-21T11:26:06.663Z,3.50
2017-11-21T11:28:36.400Z,4.77
2017-11-21T11:31:05.823Z,4.03
2017-11-21T11:33:34.671Z,5.17
2017-11-21T11:36:04.268Z,4.77
2017-11-21T11:38:33.356Z,5.47
2017-11-21T11:41:02.186Z,5.63
2017-11-21T11:43:31.031Z,6.50
2017-11-21T11:46:00.643Z,4.90
2017-11-21T11:48:29.478Z,4.93
2017-11-21T11:50:58.328Z,5.90
2017-11-21T11:53:27.956Z,6.63
2017-11-21T11:55:57.575Z,6.27
2017-11-21T11:58:26.504Z,8.17
2017-11-21T12:00:55.316Z,8.17
2017-11-21T12:03:24.140Z,7.93
2017-11-21T12:05:52.976Z,8.70
2017-11-21T12:08:21.850Z,9.50
2017-11-21T12:10:51.113Z,10.10
2017-11-21T12:13:19.976Z,9.87
2017-11-21T12:15:48.847Z,11.40
2017-11-21T12:18:17.680Z,10.70
2017-11-21T12:20:47.559Z,10.83
2017-11-21T12:23:16.391Z,9.90
2017-11-21T12:25:45.240Z,10.43
2017-11-21T12:28:14.101Z,11.27
2017-11-21T12:30:43.737Z,10.70
2017-11-21T12:33:12.589Z,12.60
2017-11-21T12:35:42.202Z,12.43
2017-11-21T12:38:11.832Z,14.07
2017-11-21T12:40:40.676Z,14.60
2017-11-21T12:43:09.531Z,12.13
2017-11-21T12:45:38.375Z,12.13
2017-11-21T12:48:08.004Z,12.40
2017-11-21T12:50:36.858Z,12.57
2017-11-21T12:53:05.693Z,12.07
2017-11-21T12:55:35.000Z,12.20
2017-11-21T12:58:03.846Z,12.87
2017-11-21T13:00:33.482Z,13.90
2017-11-21T13:03:02.331Z,11.60
2017-11-21T13:05:31.972Z,12.90
2017-11-21T13:08:01.592Z,12.60
2017-11-21T13:10:30.526Z,12.20
2017-11-21T13:12:59.370Z,11.83
2017-11-21T13:15:28.213Z,12.33
2017-11-21T13:17:57.054Z,11.70
2017-11-21T13:20:25.887Z,11.53
2017-11-21T13:22:54.735Z,10.60
2017-11-21T13:25:23.727Z,10.90
2017-11-21T13:27:53.423Z,10.73
2017-11-21T13:30:22.286Z,11.30
2017-11-21T13:32:51.917Z,10.57
2017-11-21T13:35:20.768Z,10.10
2017-11-21T13:37:50.398Z,9.50
2017-11-21T13:40:20.028Z,10.43
2017-11-21T13:42:50.160Z,11.57
2017-11-21T13:45:19.011Z,8.67
2017-11-21T13:47:48.632Z,10.77
2017-11-21T13:50:17.524Z,10.43
2017-11-21T13:52:46.391Z,8.03
2017-11-21T13:55:15.232Z,8.33
2017-11-21T13:57:44.077Z,8.53
2017-11-21T14:00:13.688Z,8.90
2017-11-21T14:02:51.471Z,7.80
2017-11-21T14:05:23.157Z,8.13
2017-11-21T14:07:51.997Z,8.37
2017-11-21T14:10:20.887Z,7.83
2017-11-21T14:12:49.847Z,9.47
2017-11-21T14:15:19.241Z,9.17
2017-11-21T14:17:48.119Z,8.93
2017-11-21T14:20:16.951Z,9.33
2017-11-21T14:22:45.781Z,8.40
2017-11-21T14:25:14.615Z,8.50
2017-11-21T14:27:43.440Z,8.60
2017-11-21T14:30:13.045Z,10.00
2017-11-21T14:32:42.673Z,9.80
2017-11-21T14:35:11.523Z,9.43
2017-11-21T14:37:40.359Z,10.30
2017-11-21T14:40:09.221Z,10.97
2017-11-21T14:42:38.852Z,10.97
2017-11-21T14:45:07.702Z,9.40
2017-11-21T14:47:36.552Z,10.40
2017-11-21T14:50:05.416Z,10.07
2017-11-21T14:52:34.238Z,10.17
2017-11-21T14:55:03.993Z,8.60
2017-11-21T14:57:33.617Z,8.87
2017-11-21T15:00:03.210Z,10.07
2017-11-21T15:02:32.852Z,9.80
2017-11-21T15:05:01.684Z,11.00
2017-11-21T15:07:30.514Z,10.50
2017-11-21T15:09:59.393Z,11.13
2017-11-21T15:12:28.310Z,12.03
2017-11-21T15:14:57.161Z,11.83
2017-11-21T15:17:26.811Z,11.83
2017-11-21T15:19:55.637Z,12.87
2017-11-21T15:22:24.490Z,13.03
2017-11-21T15:24:53.349Z,13.13
2017-11-21T15:27:22.204Z,14.70
2017-11-21T15:29:51.816Z,15.97
2017-11-21T15:32:21.452Z,16.70
2017-11-21T15:34:50.320Z,15.77
2017-11-21T15:37:19.952Z,17.70
2017-11-21T15:39:48.813Z,18.40
2017-11-21T15:42:18.444Z,19.63
2017-11-21T15:44:47.315Z,15.37
2017-11-21T15:47:16.930Z,18.63
2017-11-21T15:49:45.802Z,18.10
2017-11-21T15:52:15.435Z,17.63
2017-11-21T15:54:44.297Z,18.30
2017-11-21T15:57:13.961Z,19.57
2017-11-21T15:59:42.795Z,20.27
2017-11-21T16:02:12.439Z,20.53
2017-11-21T16:04:41.287Z,19.87
2017-11-21T16:07:10.916Z,20.33
2017-11-21T16:09:40.527Z,21.97
2017-11-21T16:12:09.915Z,22.13
2017-11-21T16:14:39.552Z,21.20
2017-11-21T16:17:08.405Z,22.77
2017-11-21T16:19:38.055Z,20.93
2017-11-21T16:22:06.911Z,20.90
2017-11-21T16:24:35.803Z,22.67
2017-11-21T16:27:04.651Z,21.10
2017-11-21T16:29:33.519Z,22.17
2017-11-21T16:32:02.383Z,22.80
2017-11-21T16:34:31.258Z,21.57
2017-11-21T16:37:00.516Z,21.30
2017-11-21T16:39:29.396Z,22.13
2017-11-21T16:41:58.287Z,23.07
2017-11-21T16:44:27.880Z,22.90
2017-11-21T16:46:57.565Z,22.80
2017-11-21T16:49:26.414Z,24.47
2017-11-21T16:51:55.333Z,22.43
2017-11-21T16:54:24.169Z,22.90
2017-11-21T16:56:52.998Z,25.03
2017-11-21T16:59:21.867Z,23.77
2017-11-21T17:01:50.709Z,24.50
2017-11-21T17:04:19.585Z,23.13
2017-11-21T17:06:48.474Z,24.83
2017-11-21T17:09:17.323Z,23.53
2017-11-21T17:11:46.624Z,25.00
2017-11-21T17:14:15.478Z,26.27
2017-11-21T17:16:45.116Z,23.90
2017-11-21T17:19:13.987Z,23.40
2017-11-21T17:21:43.583Z,22.90
2017-11-21T17:24:12.466Z,23.47
2017-11-21T17:26:41.456Z,21.47
2017-11-21T17:29:10.308Z,21.03
2017-11-21T17:31:39.178Z,21.53
2017-11-21T17:34:08.097Z,19.93
2017-11-21T17:36:36.952Z,19.67
2017-11-21T17:39:05.815Z,19.30
2017-11-21T17:41:34.698Z,21.37
2017-11-21T17:44:03.856Z,20.57
2017-11-21T17:46:32.729Z,21.70
2017-11-21T17:49:01.930Z,21.47
2017-11-21T17:51:30.783Z,21.23
2017-11-21T17:54:00.401Z,21.67
2017-11-21T17:56:30.051Z,23.33
2017-11-21T17:58:59.258Z,22.13
2017-11-21T18:01:28.885Z,22.30
2017-11-21T18:03:57.732Z,23.40
2017-11-21T18:06:26.599Z,21.20
2017-11-21T18:08:56.258Z,22.37
2017-11-21T18:11:25.096Z,19.90
2017-11-21T18:13:54.082Z,21.27
2017-11-21T18:16:24.097Z,22.53
2017-11-21T18:18:52.920Z,21.70
2017-11-21T18:21:21.823Z,20.63
2017-11-21T18:23:50.772Z,19.70
2017-11-21T18:26:19.685Z,21.83
2017-11-21T18:28:48.562Z,22.90
2017-11-21T18:31:17.472Z,23.13
2017-11-21T18:33:46.324Z,20.40
2017-11-21T18:36:15.933Z,22.90
2017-11-21T18:38:45.576Z,21.23
2017-11-21T18:41:14.520Z,21.50
2017-11-21T18:43:43.377Z,24.10
2017-11-21T18:46:12.230Z,21.77
2017-11-21T18:48:41.089Z,21.80
2017-11-21T18:51:10.707Z,22.80
2017-11-21T18:53:40.337Z,21.70
2017-11-21T18:56:09.199Z,20.63
2017-11-21T18:58:38.834Z,23.10
2017-11-21T19:01:07.705Z,25.97
2017-11-21T19:03:37.392Z,22.13
2017-11-21T19:06:06.269Z,23.40
2017-11-21T19:08:35.111Z,22.00
2017-11-21T19:11:04.017Z,25.50
2017-11-21T19:13:32.889Z,21.30
2017-11-21T19:16:01.759Z,22.60
2017-11-21T19:18:31.396Z,22.07
2017-11-21T19:21:00.291Z,22.73
2017-11-21T19:23:29.159Z,20.90
2017-11-21T19:25:58.026Z,19.70
2017-11-21T19:28:26.931Z,20.00
2017-11-21T19:30:55.788Z,21.03
2017-11-21T19:33:25.424Z,23.63
2017-11-21T19:35:54.309Z,20.83
2017-11-21T19:38:23.276Z,20.37
2017-11-21T19:40:52.981Z,21.73
2017-11-21T19:43:22.936Z,19.33
2017-11-21T19:45:51.823Z,20.03
2017-11-21T19:48:20.684Z,20.67
2017-11-21T19:50:50.330Z,20.50
2017-11-21T19:53:19.997Z,21.33
2017-11-21T19:55:49.632Z,21.23
2017-11-21T19:58:19.443Z,20.90
2017-11-21T20:00:48.338Z,19.93
2017-11-21T20:03:17.209Z,20.60
2017-11-21T20:05:46.434Z,19.57
2017-11-21T20:08:15.333Z,20.00
2017-11-21T20:10:44.193Z,18.90
2017-11-21T20:13:13.199Z,20.00
2017-11-21T20:15:42.046Z,20.60
2017-11-21T20:18:11.682Z,20.27
2017-11-21T20:20:40.595Z,21.60
2017-11-21T20:23:09.542Z,20.20
2017-11-21T20:25:39.186Z,19.73
2017-11-21T20:28:08.135Z,18.77
2017-11-21T20:30:36.992Z,19.67
2017-11-21T20:33:06.640Z,20.07
2017-11-21T20:35:35.518Z,21.50
2017-11-21T20:38:04.467Z,18.10
2017-11-21T20:40:33.307Z,18.97
2017-11-21T20:43:02.165Z,18.43
2017-11-21T20:45:32.425Z,18.67
2017-11-21T21:01:02.764Z,16.20
2017-11-21T21:03:31.876Z,15.37
2017-11-21T21:06:01.602Z,16.60
2017-11-21T21:08:30.527Z,15.20
2017-11-21T21:10:59.466Z,16.63
2017-11-21T21:13:28.384Z,14.77
2017-11-21T21:15:58.297Z,14.53
2017-11-21T21:18:27.253Z,17.57
2017-11-21T21:20:56.166Z,16.60
2017-11-21T21:23:25.252Z,13.93
2017-11-21T21:25:54.969Z,15.03
2017-11-21T21:28:24.239Z,15.20
2017-11-21T21:30:53.864Z,14.73
2017-11-21T21:33:23.128Z,17.37
2017-11-21T21:35:52.757Z,18.03
2017-11-21T21:38:21.616Z,19.20
2017-11-21T21:40:50.686Z,19.43
2017-11-21T21:43:19.557Z,19.40
2017-11-21T21:45:48.451Z,17.90
2017-11-21T21:48:17.281Z,17.10
2017-11-21T21:50:46.141Z,15.57
2017-11-21T21:53:15.011Z,17.60
2017-11-21T21:55:43.888Z,15.77
2017-11-21T21:58:12.753Z,16.37
2017-11-21T22:00:42.538Z,15.97
2017-11-21T22:03:11.422Z,15.20
2017-11-21T22:05:40.260Z,15.80
2017-11-21T22:08:09.112Z,14.50
2017-11-21T22:10:38.054Z,14.27
2017-11-21T22:13:06.929Z,15.37
2017-11-21T22:15:36.217Z,14.60
2017-11-21T22:18:05.044Z,14.83
2017-11-21T22:20:33.927Z,16.03
2017-11-21T22:23:02.770Z,15.47
2017-11-21T22:25:31.632Z,15.73
2017-11-21T22:28:00.475Z,16.50
2017-11-21T22:30:30.528Z,15.50
2017-11-21T22:33:00.131Z,16.50
2017-11-21T22:35:28.992Z,15.43
2017-11-21T22:37:57.868Z,14.60
2017-11-21T22:40:26.702Z,13.97
2017-11-21T22:42:55.556Z,15.47
2017-11-21T22:45:24.522Z,14.27
2017-11-21T22:47:53.362Z,16.77
2017-11-21T22:50:22.971Z,15.77
2017-11-21T22:52:52.599Z,15.43
2017-11-21T22:55:21.473Z,13.57
2017-11-21T22:57:51.108Z,14.13
2017-11-21T23:00:19.971Z,13.57
2017-11-21T23:02:49.599Z,14.70
2017-11-21T23:05:18.451Z,14.20
2017-11-21T23:07:48.059Z,13.00
2017-11-21T23:10:17.684Z,13.30
2017-11-21T23:12:46.564Z,14.17
2017-11-21T23:15:16.180Z,15.67
2017-11-21T23:17:45.800Z,13.30
2017-11-21T23:20:14.648Z,13.23
2017-11-21T23:22:45.597Z,13.50
2017-11-21T23:25:15.238Z,12.77
2017-11-21T23:27:44.080Z,12.90
2017-11-21T23:30:12.925Z,11.67
2017-11-21T23:32:41.786Z,12.60
2017-11-21T23:35:11.389Z,12.97
2017-11-21T23:37:41.024Z,11.93
2017-11-21T23:40:09.900Z,11.33
2017-11-21T23:42:38.757Z,12.13
2017-11-21T23:45:07.597Z,11.17
2017-11-21T23:47:36.475Z,11.90
2017-11-21T23:50:05.325Z,11.30
2017-11-21T23:52:35.072Z,11.17
2017-11-21T23:55:03.931Z,11.67
2017-11-21T23:57:33.535Z,11.10
